Nova Monte Verde, Brazil
Current Conditions -  °F | °C
As of 6:00 PM on Thursday 18 Dec 2014 (Local Time) from SBAT Reporting Station
Few Clouds Few Clouds  
Wind Chill: 84°   Ceiling: Unl
Heat Index: 91°   Visibility: 6mi
Dew Point: 73°   Wind: 5mph
Humidity: 70%   Direction: 90°E
Pressure: 29.77"   Gusts: NA
Location:  9.98°S, 57.53°W
Report Text: SBAT 182100Z 09004KT 9999 FEW030TCU 29/23 Q1008
Loading
Personal Weather Stations






























Interactive Weather Map New forecast layout! Learn more

10-Day Weather Forecast

Advertisements
Track Severe Weather on mobile